Joyland, NC

11:15 PM EDT on June 24, 2017 (GMT -0400)
Oak Grove, NC (DW) | | Change Station

Elev 316 ft 35.99 °N, 78.83 °W | Updated 40 seconds ago

Partly Cloudy
Partly Cloudy
70.8 °F
Feels Like 70.8 °F
N
0.0
Wind Variable Wind from NW
Gusts 0.0 mph

Today
High -- | Low -- °F
--% Chance of Precip.
Yesterday
High -- | Low -- °F
Precip. -- in
Pressure 30.01 in
Visibility 10.0 miles
Clouds Scattered Clouds 700 ft
Mostly Cloudy 9000 ft
Overcast 14000 ft
Dew Point 70 °F
Humidity 97%
Rainfall 0.45 in
Snow Depth Not available.
5:59 AM 8:35 PM
New Moon, 2% visible
METAR KRDU 250251Z 25003KT 10SM SCT007 BKN090 OVC140 22/22 A3002 RMK AO2 RAE0157 SLP160 P0000 60000 T02220217 51020
Pressure 30.01 in
Visibility 10.0 miles
Clouds Scattered Clouds 700 ft
Mostly Cloudy 9000 ft
Overcast 14000 ft
Dew Point 70 °F
Humidity 97%
Rainfall 0.45 in
Snow Depth Not available.
5:59 AM 8:35 PM
New Moon, 2% visible
METAR KRDU 250251Z 25003KT 10SM SCT007 BKN090 OVC140 22/22 A3002 RMK AO2 RAE0157 SLP160 P0000 60000 T02220217 51020

Get Severe Weather Alerts

Thanks for signing up!

Be on the lookout for a verification email in your inbox.

You'll start receiving the daily forecast at 6 AM.

×

10-Day Weather Forecast

Almanac

Astronomy

Jun. 24, 2017 Rise Set
Actual Time
Civil Twilight
Nautical Twilight
Astronomical Twilight
Moon
Length of Visible Light
Length of Day
Tomorrow will be .
, % of the Moon is Illuminated

Today's Extremes

State Highs State Lows

Community

WunderPhotos

Category 6

Welcome to Category 6. This is the collective home for Weather Underground's featured writeups by Dr. Jeff Masters (right), Bob Henson (left), Chris Burt, and other regular contributors.

Nearby

Air Quality

  Air Quality AQ Index Pollutant
Not available.

Snow Depth

Station Depth Elevation

Earthquake Activity

City Distance Mag. Time & Date
Minimum magnitude displayed is 2.5.

Coastal Water Temperatures

Place Temperature

Stations

Nearby Weather Stations

Station Location Temp. Windchill Dew Point Humidity Wind Precip. Elev Updated Type
                   

Watches & Warnings

There are currently no watches in effect.